Time;durP1;ratioP1;P1;durP2;ratioP2;P2;SDS_P1;SDS_P2;PMS_P1;PMS_P2;Temp;Humidity;BMP_temperature;BMP_pressure;BME280_temperature;BME280_humidity;BME280_pressure;Samples;Min_cycle;Max_cycle;Signal;HPM_P1;HPM_P2
2024/02/27 00:01:31;;;;;;;1.50;1.40;;;;;;;;;;5021974;28;58251;-79
2024/02/27 00:04:01;;;;;;;1.23;1.13;;;;;;;;;;5027752;28;59239;-79
2024/02/27 00:06:26;;;;;;;1.95;1.85;;;;;;;;;;5025063;28;58537;-80
2024/02/27 00:08:51;;;;;;;1.80;1.30;;;;;;;;;;5027436;28;58740;-78
2024/02/27 00:11:16;;;;;;;1.57;1.47;;;;;;;;;;5016285;28;58424;-79
2024/02/27 00:13:41;;;;;;;1.23;1.10;;;;;;;;;;5025554;28;58554;-79
2024/02/27 00:16:07;;;;;;;2.28;1.60;;;;;;;;;;5027701;28;58481;-79
2024/02/27 00:18:32;;;;;;;2.10;1.90;;;;;;;;;;5026652;28;58588;-79
2024/02/27 00:20:57;;;;;;;1.60;1.50;;;;;;;;;;5024217;28;58603;-79
2024/02/27 00:23:22;;;;;;;1.13;1.00;;;;;;;;;;5007288;28;58433;-79
2024/02/27 00:25:47;;;;;;;1.55;1.30;;;;;;;;;;5002796;28;58697;-79
2024/02/27 00:28:12;;;;;;;1.47;1.37;;;;;;;;;;5012225;28;59208;-79
2024/02/27 00:30:38;;;;;;;2.20;1.30;;;;;;;;;;5015374;28;58541;-79
2024/02/27 00:33:03;;;;;;;1.60;1.50;;;;;;;;;;5015013;28;58382;-79
2024/02/27 00:35:28;;;;;;;1.77;1.17;;;;;;;;;;5014690;28;59187;-79
2024/02/27 00:37:53;;;;;;;1.83;1.27;;;;;;;;;;5023714;28;58869;-79
2024/02/27 00:40:19;;;;;;;1.92;1.65;;;;;;;;;;5017740;28;58449;-80
2024/02/27 00:42:44;;;;;;;1.77;1.67;;;;;;;;;;5019483;28;58333;-78
2024/02/27 00:45:09;;;;;;;1.38;1.27;;;;;;;;;;5024291;28;58509;-79
2024/02/27 00:47:34;;;;;;;1.73;1.63;;;;;;;;;;5023777;28;58449;-79
2024/02/27 00:49:59;;;;;;;1.67;1.57;;;;;;;;;;5024487;28;59797;-78
2024/02/27 00:52:25;;;;;;;1.90;1.30;;;;;;;;;;5018637;28;58551;-79
2024/02/27 00:54:51;;;;;;;1.40;1.30;;;;;;;;;;5015546;28;60450;-79
2024/02/27 00:57:16;;;;;;;2.90;1.60;;;;;;;;;;5017755;28;58490;-79
2024/02/27 00:59:41;;;;;;;1.33;1.23;;;;;;;;;;5027854;28;58681;-79
2024/02/27 01:02:08;;;;;;;1.20;1.10;;;;;;;;;;5016235;28;59232;-79
2024/02/27 01:04:33;;;;;;;1.63;1.52;;;;;;;;;;5023504;28;59871;-79
2024/02/27 01:06:58;;;;;;;2.50;1.27;;;;;;;;;;5026297;28;58498;-79
2024/02/27 01:09:23;;;;;;;4.03;1.67;;;;;;;;;;5019000;28;58785;-79
2024/02/27 01:11:48;;;;;;;1.47;1.37;;;;;;;;;;5004554;28;58483;-79
2024/02/27 01:14:13;;;;;;;2.67;1.73;;;;;;;;;;5015342;28;59238;-79
2024/02/27 01:16:39;;;;;;;1.23;1.13;;;;;;;;;;5007390;28;59835;-79
2024/02/27 01:19:04;;;;;;;2.95;1.30;;;;;;;;;;5012444;28;58437;-79
2024/02/27 01:21:29;;;;;;;1.25;1.15;;;;;;;;;;5016684;28;58711;-76
2024/02/27 01:23:54;;;;;;;4.25;1.67;;;;;;;;;;5014831;28;58779;-75
2024/02/27 01:26:20;;;;;;;1.67;1.40;;;;;;;;;;5016341;28;58622;-75
2024/02/27 01:28:45;;;;;;;1.57;1.47;;;;;;;;;;5023555;28;59487;-76
2024/02/27 01:31:10;;;;;;;2.38;1.27;;;;;;;;;;5021250;28;58654;-76
2024/02/27 01:33:35;;;;;;;1.30;1.20;;;;;;;;;;5023739;28;60463;-77
2024/02/27 01:36:00;;;;;;;1.50;1.30;;;;;;;;;;5023131;28;59899;-76
2024/02/27 01:38:25;;;;;;;1.50;1.40;;;;;;;;;;5026475;28;59012;-75
2024/02/27 01:40:51;;;;;;;1.47;1.37;;;;;;;;;;5025597;28;58427;-75
2024/02/27 01:43:25;;;;;;;1.42;1.33;;;;;;;;;;5026015;28;59749;-75
2024/02/27 01:45:57;;;;;;;1.85;1.70;;;;;;;;;;5014454;28;58445;-75
2024/02/27 01:48:22;;;;;;;1.92;1.80;;;;;;;;;;5012370;28;59423;-75
2024/02/27 01:50:47;;;;;;;1.63;1.37;;;;;;;;;;5025994;28;58541;-75
2024/02/27 01:53:13;;;;;;;1.20;1.10;;;;;;;;;;5029648;28;58644;-76
2024/02/27 01:55:39;;;;;;;1.50;1.40;;;;;;;;;;5024027;28;60186;-75
2024/02/27 01:58:05;;;;;;;1.63;1.52;;;;;;;;;;5026670;28;58760;-75
2024/02/27 02:00:30;;;;;;;1.33;1.23;;;;;;;;;;5024753;28;58670;-77
2024/02/27 02:02:55;;;;;;;1.20;1.10;;;;;;;;;;5018588;28;58770;-75
2024/02/27 02:05:21;;;;;;;1.88;1.20;;;;;;;;;;5019901;28;58442;-75
2024/02/27 02:07:46;;;;;;;1.40;1.30;;;;;;;;;;5018658;28;58695;-75
2024/02/27 02:10:12;;;;;;;1.40;1.30;;;;;;;;;;5020014;28;58571;-76
2024/02/27 02:12:37;;;;;;;1.58;1.30;;;;;;;;;;5021959;28;58410;-76
2024/02/27 02:15:34;;;;;;;1.00;1.00;;;;;;;;;;5026992;28;59465;-76
2024/02/27 02:17:59;;;;;;;1.40;1.25;;;;;;;;;;5026310;28;58535;-76
2024/02/27 02:20:24;;;;;;;1.10;1.10;;;;;;;;;;5029132;28;58356;-79
2024/02/27 02:22:50;;;;;;;1.67;1.40;;;;;;;;;;5026115;28;58851;-79
2024/02/27 02:25:17;;;;;;;1.40;1.30;;;;;;;;;;5028572;28;58918;-80
2024/02/27 02:27:43;;;;;;;1.50;1.40;;;;;;;;;;5027176;28;59719;-79
2024/02/27 02:30:11;;;;;;;1.60;1.50;;;;;;;;;;5027026;28;58996;-79
2024/02/27 02:32:36;;;;;;;3.33;1.80;;;;;;;;;;5027829;28;58369;-79
2024/02/27 02:35:02;;;;;;;1.50;1.20;;;;;;;;;;5030868;27;59679;-78
2024/02/27 02:37:27;;;;;;;1.30;1.20;;;;;;;;;;5027299;28;58467;-79
2024/02/27 02:39:52;;;;;;;2.53;1.20;;;;;;;;;;5029635;27;59357;-79
2024/02/27 02:42:18;;;;;;;1.50;1.40;;;;;;;;;;5027439;28;58710;-79
2024/02/27 02:44:43;;;;;;;1.60;1.50;;;;;;;;;;5028864;28;58400;-79
2024/02/27 02:47:08;;;;;;;1.42;1.33;;;;;;;;;;5028233;28;59183;-79
2024/02/27 02:49:33;;;;;;;1.37;1.10;;;;;;;;;;5028066;28;60689;-79
2024/02/27 02:51:58;;;;;;;1.70;1.60;;;;;;;;;;5028259;27;58596;-79
2024/02/27 02:54:23;;;;;;;1.63;1.43;;;;;;;;;;5027710;28;59282;-79
2024/02/27 02:56:49;;;;;;;1.27;1.17;;;;;;;;;;5029587;28;58530;-79
2024/02/27 02:59:14;;;;;;;1.20;1.10;;;;;;;;;;5028138;28;58721;-79
2024/02/27 03:01:39;;;;;;;1.40;1.30;;;;;;;;;;5012882;28;58445;-79
2024/02/27 03:04:04;;;;;;;1.17;1.05;;;;;;;;;;5022152;28;58383;-79
2024/02/27 03:06:29;;;;;;;1.17;1.10;;;;;;;;;;5029467;28;60639;-79
2024/02/27 03:08:55;;;;;;;1.53;1.10;;;;;;;;;;5027778;28;59038;-79
2024/02/27 03:11:20;;;;;;;1.57;1.47;;;;;;;;;;5030120;28;58402;-79
2024/02/27 03:13:45;;;;;;;1.50;1.40;;;;;;;;;;5018582;28;59143;-79
2024/02/27 03:16:10;;;;;;;1.23;1.13;;;;;;;;;;5016038;28;58871;-78
2024/02/27 03:18:36;;;;;;;1.40;1.13;;;;;;;;;;5017853;28;60284;-78
2024/02/27 03:21:02;;;;;;;1.67;1.48;;;;;;;;;;5017925;28;58500;-78
2024/02/27 03:23:27;;;;;;;1.30;1.20;;;;;;;;;;5019856;28;58390;-79
2024/02/27 03:25:52;;;;;;;0.93;0.90;;;;;;;;;;5016405;28;59280;-79
2024/02/27 03:28:17;;;;;;;1.17;1.17;;;;;;;;;;5017649;28;58956;-78
2024/02/27 03:30:42;;;;;;;1.45;1.08;;;;;;;;;;5023060;28;58345;-75
2024/02/27 03:33:07;;;;;;;1.20;1.10;;;;;;;;;;5029273;28;59653;-76
2024/02/27 03:35:32;;;;;;;1.25;1.20;;;;;;;;;;5029538;28;58465;-76
2024/02/27 03:37:58;;;;;;;1.20;1.20;;;;;;;;;;5016613;28;58466;-75
2024/02/27 03:40:23;;;;;;;1.27;1.20;;;;;;;;;;5025382;28;58552;-79
2024/02/27 03:42:48;;;;;;;1.50;1.13;;;;;;;;;;5028163;28;58484;-79
2024/02/27 03:45:13;;;;;;;1.23;1.13;;;;;;;;;;5020763;28;58313;-79
2024/02/27 03:47:38;;;;;;;1.42;1.33;;;;;;;;;;5004205;28;58825;-79
2024/02/27 03:50:03;;;;;;;1.33;1.23;;;;;;;;;;5002389;28;58535;-78
2024/02/27 03:52:30;;;;;;;1.47;1.37;;;;;;;;;;5012714;28;58504;-79
2024/02/27 03:54:55;;;;;;;1.30;1.20;;;;;;;;;;5013547;28;58687;-79
2024/02/27 03:57:20;;;;;;;1.07;1.07;;;;;;;;;;5019915;28;58580;-79
2024/02/27 03:59:46;;;;;;;1.07;1.07;;;;;;;;;;5026261;28;59436;-79
2024/02/27 04:02:11;;;;;;;1.33;1.23;;;;;;;;;;5015570;28;58479;-79
2024/02/27 04:04:36;;;;;;;1.63;1.53;;;;;;;;;;5023932;28;59399;-79
2024/02/27 04:07:01;;;;;;;1.13;1.13;;;;;;;;;;5015483;28;59554;-78
2024/02/27 04:09:26;;;;;;;1.50;1.40;;;;;;;;;;5007334;28;58410;-78
2024/02/27 04:11:51;;;;;;;1.35;1.25;;;;;;;;;;5015484;28;59548;-79
2024/02/27 04:14:17;;;;;;;1.83;1.73;;;;;;;;;;5027712;28;58799;-78
2024/02/27 04:16:42;;;;;;;1.00;0.97;;;;;;;;;;5022738;28;58299;-79
2024/02/27 04:19:07;;;;;;;0.70;0.70;;;;;;;;;;5025481;28;59146;-79
2024/02/27 04:21:32;;;;;;;1.20;1.10;;;;;;;;;;5021649;28;58802;-78
2024/02/27 04:23:57;;;;;;;1.27;1.17;;;;;;;;;;5010679;28;59311;-79
2024/02/27 04:26:22;;;;;;;1.00;1.00;;;;;;;;;;5023108;28;59597;-78
2024/02/27 04:28:47;;;;;;;1.23;1.13;;;;;;;;;;5013134;28;58429;-79
2024/02/27 04:31:13;;;;;;;1.45;1.35;;;;;;;;;;5020429;28;59093;-79
2024/02/27 04:33:39;;;;;;;1.10;1.00;;;;;;;;;;5025134;27;58370;-79
2024/02/27 04:36:06;;;;;;;1.88;1.17;;;;;;;;;;5018887;28;58389;-79
2024/02/27 04:38:32;;;;;;;1.20;1.10;;;;;;;;;;5026669;28;59396;-79
2024/02/27 04:40:57;;;;;;;1.20;1.10;;;;;;;;;;5015923;28;59047;-79
2024/02/27 04:43:22;;;;;;;1.27;1.17;;;;;;;;;;5018459;28;58490;-79
2024/02/27 04:45:47;;;;;;;1.37;1.27;;;;;;;;;;5017177;28;59106;-79
2024/02/27 04:48:12;;;;;;;1.50;1.40;;;;;;;;;;5012565;28;58424;-79
2024/02/27 04:50:37;;;;;;;0.93;0.93;;;;;;;;;;5022430;28;61022;-79
2024/02/27 04:53:03;;;;;;;0.80;0.80;;;;;;;;;;5021707;28;59939;-78
2024/02/27 04:55:29;;;;;;;1.48;1.30;;;;;;;;;;5024968;28;58393;-79
2024/02/27 04:57:54;;;;;;;1.30;1.20;;;;;;;;;;5023625;28;59379;-79
2024/02/27 05:00:20;;;;;;;1.25;1.15;;;;;;;;;;5023099;28;58611;-79
2024/02/27 05:02:45;;;;;;;2.47;1.90;;;;;;;;;;5022729;28;58533;-79
2024/02/27 05:05:10;;;;;;;1.48;1.38;;;;;;;;;;5012265;28;58690;-79
2024/02/27 05:07:35;;;;;;;1.33;1.23;;;;;;;;;;5019876;28;58433;-79
2024/02/27 05:10:00;;;;;;;4.93;1.10;;;;;;;;;;5025423;28;58457;-79
2024/02/27 05:12:26;;;;;;;0.90;0.90;;;;;;;;;;5023471;27;60069;-79
2024/02/27 05:14:51;;;;;;;0.65;0.65;;;;;;;;;;5024133;28;58369;-79
2024/02/27 05:17:16;;;;;;;1.60;1.13;;;;;;;;;;5021758;28;59457;-79
2024/02/27 05:19:41;;;;;;;1.50;1.40;;;;;;;;;;5023779;28;58562;-79
2024/02/27 05:22:07;;;;;;;1.00;0.83;;;;;;;;;;5021396;28;58483;-79
2024/02/27 05:24:32;;;;;;;1.35;1.25;;;;;;;;;;5024195;28;59608;-79
2024/02/27 05:26:57;;;;;;;1.83;1.73;;;;;;;;;;5026709;28;58397;-79
2024/02/27 05:29:22;;;;;;;1.30;1.20;;;;;;;;;;5026702;28;59874;-79
2024/02/27 05:31:47;;;;;;;1.40;1.30;;;;;;;;;;5012412;28;59622;-79
2024/02/27 05:34:12;;;;;;;1.17;1.07;;;;;;;;;;5015628;28;58562;-79
2024/02/27 05:36:37;;;;;;;1.30;1.20;;;;;;;;;;5014458;28;59180;-79
2024/02/27 05:39:03;;;;;;;1.35;1.23;;;;;;;;;;5017353;28;59046;-78
2024/02/27 05:41:28;;;;;;;1.30;1.20;;;;;;;;;;5016816;28;58429;-78
2024/02/27 05:43:54;;;;;;;1.20;1.03;;;;;;;;;;5028319;28;59364;-78
2024/02/27 05:46:19;;;;;;;1.20;1.10;;;;;;;;;;5027451;28;58815;-79
2024/02/27 05:48:44;;;;;;;2.00;1.27;;;;;;;;;;5022424;28;59451;-78
2024/02/27 05:51:10;;;;;;;1.30;1.20;;;;;;;;;;5016089;28;58930;-77
2024/02/27 05:53:35;;;;;;;1.55;1.45;;;;;;;;;;5029211;28;58500;-77
2024/02/27 05:56:01;;;;;;;1.48;1.38;;;;;;;;;;5015657;28;59368;-75
2024/02/27 05:58:26;;;;;;;7.60;4.65;;;;;;;;;;5021056;28;59933;-75
2024/02/27 06:00:52;;;;;;;10.13;6.78;;;;;;;;;;5025433;28;58354;-75
2024/02/27 06:03:17;;;;;;;5.35;4.85;;;;;;;;;;5028795;28;60186;-75
2024/02/27 06:05:43;;;;;;;7.55;5.47;;;;;;;;;;5027939;28;58952;-75
2024/02/27 06:08:08;;;;;;;7.77;5.67;;;;;;;;;;5010248;28;58371;-75
2024/02/27 06:10:33;;;;;;;5.50;4.97;;;;;;;;;;5024450;28;58454;-75
2024/02/27 06:12:58;;;;;;;4.73;3.97;;;;;;;;;;5021630;28;58223;-77
2024/02/27 06:15:23;;;;;;;4.13;3.75;;;;;;;;;;5022030;28;59185;-75
2024/02/27 06:17:48;;;;;;;6.40;3.97;;;;;;;;;;5028156;28;58621;-75
2024/02/27 06:22:57;;;;;;;4.03;3.67;;;;;;;;;;5029388;28;58394;-75
2024/02/27 06:25:22;;;;;;;3.92;3.53;;;;;;;;;;5030982;28;58752;-75
2024/02/27 06:27:50;;;;;;;4.93;3.53;;;;;;;;;;5020099;28;58485;-75
2024/02/27 06:30:16;;;;;;;3.88;2.83;;;;;;;;;;5012728;28;59344;-75
2024/02/27 06:32:41;;;;;;;6.07;3.17;;;;;;;;;;5031115;28;58475;-76
2024/02/27 06:35:07;;;;;;;4.55;2.80;;;;;;;;;;5030463;28;59586;-75
2024/02/27 06:37:33;;;;;;;3.15;2.85;;;;;;;;;;5019816;28;58995;-76
2024/02/27 06:39:59;;;;;;;4.78;3.33;;;;;;;;;;5017514;28;58370;-75
2024/02/27 06:42:24;;;;;;;3.97;3.05;;;;;;;;;;5017881;28;59479;-75
2024/02/27 06:44:49;;;;;;;3.35;2.85;;;;;;;;;;5015822;28;59052;-75
2024/02/27 06:47:17;;;;;;;3.07;2.47;;;;;;;;;;5017976;28;58473;-75
2024/02/27 06:49:42;;;;;;;4.45;2.50;;;;;;;;;;5029226;28;59970;-75
2024/02/27 06:52:08;;;;;;;2.90;2.13;;;;;;;;;;5027900;28;58475;-75
2024/02/27 06:54:33;;;;;;;4.03;2.80;;;;;;;;;;5026788;28;59470;-75
2024/02/27 06:56:58;;;;;;;3.72;2.33;;;;;;;;;;5027236;28;58373;-75
2024/02/27 06:59:24;;;;;;;2.60;2.30;;;;;;;;;;5016274;28;58445;-76
2024/02/27 07:01:49;;;;;;;4.47;2.60;;;;;;;;;;5016446;28;60118;-75
2024/02/27 07:04:14;;;;;;;2.20;1.95;;;;;;;;;;5014763;28;58785;-76
2024/02/27 07:06:39;;;;;;;2.47;2.20;;;;;;;;;;5015125;28;58480;-75
2024/02/27 07:09:04;;;;;;;4.50;2.23;;;;;;;;;;5017238;28;59415;-76
2024/02/27 07:11:31;;;;;;;5.22;2.33;;;;;;;;;;5016629;28;58815;-78
2024/02/27 07:13:56;;;;;;;3.50;2.80;;;;;;;;;;5016752;28;59320;-78
2024/02/27 07:16:22;;;;;;;4.43;2.88;;;;;;;;;;5016483;28;58793;-78
2024/02/27 07:18:48;;;;;;;2.13;1.93;;;;;;;;;;5011121;28;58670;-79
2024/02/27 07:21:13;;;;;;;2.55;1.90;;;;;;;;;;5008912;28;60337;-78
2024/02/27 07:23:38;;;;;;;2.50;1.90;;;;;;;;;;5019045;28;59841;-78
2024/02/27 07:26:03;;;;;;;2.53;2.07;;;;;;;;;;5027715;28;58454;-77
2024/02/27 07:28:29;;;;;;;2.53;2.33;;;;;;;;;;5029187;28;59407;-79
2024/02/27 07:30:54;;;;;;;2.83;2.15;;;;;;;;;;5018222;28;59248;-78
2024/02/27 07:33:19;;;;;;;3.10;2.90;;;;;;;;;;5010294;28;58628;-78
2024/02/27 07:35:44;;;;;;;2.03;1.83;;;;;;;;;;5017968;28;59879;-78
2024/02/27 07:38:10;;;;;;;3.80;2.13;;;;;;;;;;5017815;28;58417;-78
2024/02/27 07:40:35;;;;;;;2.83;2.23;;;;;;;;;;5016989;28;59229;-78
2024/02/27 07:43:01;;;;;;;2.13;1.67;;;;;;;;;;5017520;28;59795;-78
2024/02/27 07:45:26;;;;;;;3.45;2.20;;;;;;;;;;5020011;28;58445;-78
2024/02/27 07:47:51;;;;;;;3.10;2.05;;;;;;;;;;5027132;28;60031;-78
2024/02/27 07:50:17;;;;;;;2.60;1.80;;;;;;;;;;5005827;28;59147;-78
2024/02/27 07:52:42;;;;;;;3.40;1.98;;;;;;;;;;5005695;28;58581;-78
2024/02/27 07:55:07;;;;;;;2.20;2.00;;;;;;;;;;5009513;28;59505;-78
2024/02/27 07:57:33;;;;;;;1.47;1.37;;;;;;;;;;5016391;28;58396;-78
2024/02/27 07:59:58;;;;;;;2.20;1.70;;;;;;;;;;5017213;28;59121;-78
2024/02/27 08:02:24;;;;;;;1.95;1.70;;;;;;;;;;5016032;28;58810;-78
2024/02/27 08:04:49;;;;;;;2.25;1.83;;;;;;;;;;5019117;28;58435;-78
2024/02/27 08:07:14;;;;;;;1.83;1.73;;;;;;;;;;5023496;28;59458;-78
2024/02/27 08:09:39;;;;;;;2.67;1.98;;;;;;;;;;5027277;28;58373;-78
2024/02/27 08:12:04;;;;;;;2.63;1.67;;;;;;;;;;5027280;28;58331;-78
2024/02/27 08:14:30;;;;;;;1.97;1.50;;;;;;;;;;5026893;28;59232;-78
2024/02/27 08:16:57;;;;;;;1.77;1.30;;;;;;;;;;5020354;28;58497;-78
2024/02/27 08:19:23;;;;;;;2.25;1.85;;;;;;;;;;5019953;28;58979;-78
2024/02/27 08:21:48;;;;;;;2.40;2.20;;;;;;;;;;5015457;28;58916;-75
2024/02/27 08:24:13;;;;;;;3.70;1.88;;;;;;;;;;5022745;28;58521;-75
2024/02/27 08:26:38;;;;;;;2.33;1.77;;;;;;;;;;5027873;28;59182;-76
2024/02/27 08:29:04;;;;;;;2.67;2.20;;;;;;;;;;5025887;28;59842;-76
2024/02/27 08:31:29;;;;;;;1.77;1.30;;;;;;;;;;5027463;28;58623;-75
2024/02/27 08:33:56;;;;;;;2.50;1.65;;;;;;;;;;5024332;28;61555;-75
2024/02/27 08:36:24;;;;;;;1.77;1.60;;;;;;;;;;5013708;28;60059;-74
2024/02/27 08:38:50;;;;;;;2.28;1.55;;;;;;;;;;5020721;28;58477;-76
2024/02/27 08:41:20;;;;;;;2.03;1.25;;;;;;;;;;5016660;28;58747;-75
2024/02/27 08:43:45;;;;;;;1.33;1.23;;;;;;;;;;5018045;28;58522;-75
2024/02/27 08:46:14;;;;;;;1.67;1.40;;;;;;;;;;5017502;28;60385;-75
2024/02/27 08:48:39;;;;;;;1.65;1.48;;;;;;;;;;5011207;28;60499;-76
2024/02/27 08:51:04;;;;;;;2.70;1.65;;;;;;;;;;5002822;28;58633;-77
2024/02/27 08:53:29;;;;;;;1.85;1.52;;;;;;;;;;5015549;28;59436;-76
2024/02/27 08:55:55;;;;;;;7.47;2.13;;;;;;;;;;5014271;28;58776;-77
2024/02/27 08:58:20;;;;;;;2.28;1.85;;;;;;;;;;5016994;28;58430;-76
2024/02/27 09:00:45;;;;;;;9.18;1.70;;;;;;;;;;5013891;28;59455;-76
2024/02/27 09:03:10;;;;;;;3.63;2.05;;;;;;;;;;5015666;28;58429;-77
2024/02/27 09:05:35;;;;;;;4.00;1.80;;;;;;;;;;5019344;28;59346;-76
2024/02/27 09:08:00;;;;;;;2.80;1.58;;;;;;;;;;5004144;28;58754;-76
2024/02/27 09:10:26;;;;;;;1.50;1.30;;;;;;;;;;5021611;28;58552;-77
2024/02/27 09:12:51;;;;;;;2.80;1.73;;;;;;;;;;5028373;28;59390;-76
2024/02/27 09:15:18;;;;;;;1.90;1.10;;;;;;;;;;5029889;28;58488;-77
2024/02/27 09:17:43;;;;;;;1.88;1.63;;;;;;;;;;5029836;28;58427;-76
2024/02/27 09:20:08;;;;;;;1.85;1.55;;;;;;;;;;5030323;28;60250;-79
2024/02/27 09:22:34;;;;;;;2.28;1.52;;;;;;;;;;5029671;28;58342;-79
2024/02/27 09:24:59;;;;;;;1.58;1.48;;;;;;;;;;5029670;28;58431;-79
2024/02/27 09:27:24;;;;;;;2.03;1.50;;;;;;;;;;5026015;28;58375;-79
2024/02/27 09:29:49;;;;;;;1.93;1.70;;;;;;;;;;5021544;28;58552;-80
2024/02/27 09:32:16;;;;;;;1.88;1.67;;;;;;;;;;5015786;28;59272;-79
2024/02/27 09:34:42;;;;;;;1.38;1.27;;;;;;;;;;5027440;28;58492;-79
2024/02/27 09:37:07;;;;;;;1.90;1.70;;;;;;;;;;5029349;28;58299;-79
2024/02/27 09:39:32;;;;;;;2.05;1.83;;;;;;;;;;5031035;27;59637;-79
2024/02/27 09:42:10;;;;;;;1.60;1.42;;;;;;;;;;5028737;28;59811;-79
2024/02/27 09:44:35;;;;;;;;;;;;;;;;;;5021613;28;60518;-79
2024/02/27 09:47:03;;;;;;;1.15;1.00;;;;;;;;;;5019429;28;58386;-80
2024/02/27 09:49:29;;;;;;;1.83;1.63;;;;;;;;;;5009332;28;58506;-79
2024/02/27 09:51:55;;;;;;;1.65;1.55;;;;;;;;;;5012251;28;58611;-79
2024/02/27 09:54:20;;;;;;;1.42;1.33;;;;;;;;;;5021201;28;58507;-79
2024/02/27 09:56:46;;;;;;;1.52;1.20;;;;;;;;;;5031313;28;58271;-79
2024/02/27 09:59:11;;;;;;;1.73;1.63;;;;;;;;;;5028265;28;59424;-79
2024/02/27 10:01:37;;;;;;;2.08;1.40;;;;;;;;;;5028339;27;58872;-80
2024/02/27 10:04:02;;;;;;;1.70;1.60;;;;;;;;;;5031757;27;58493;-79
2024/02/27 10:06:31;;;;;;;1.50;1.40;;;;;;;;;;5027888;28;58717;-79
2024/02/27 10:08:56;;;;;;;1.30;1.20;;;;;;;;;;5028267;28;58445;-79
2024/02/27 10:11:22;;;;;;;2.00;1.50;;;;;;;;;;5029668;28;59275;-79
2024/02/27 10:13:47;;;;;;;1.53;1.33;;;;;;;;;;5019829;28;59848;-79
2024/02/27 10:16:13;;;;;;;1.73;1.63;;;;;;;;;;5026384;28;58433;-79
2024/02/27 10:18:38;;;;;;;1.98;1.42;;;;;;;;;;5028649;28;60274;-79
2024/02/27 10:21:04;;;;;;;1.53;1.43;;;;;;;;;;5027769;27;59949;-80
2024/02/27 10:23:30;;;;;;;1.90;1.42;;;;;;;;;;5032082;28;58428;-79
2024/02/27 10:26:05;;;;;;;1.42;1.33;;;;;;;;;;5027891;28;59434;-79
2024/02/27 10:28:32;;;;;;;1.95;1.85;;;;;;;;;;5028282;28;58422;-79
2024/02/27 10:30:57;;;;;;;1.27;1.17;;;;;;;;;;5028559;28;60167;-77
2024/02/27 10:33:22;;;;;;;1.50;1.40;;;;;;;;;;5024553;28;58563;-77
2024/02/27 10:35:48;;;;;;;5.53;1.85;;;;;;;;;;5019017;28;58483;-76
2024/02/27 10:38:14;;;;;;;4.63;1.67;;;;;;;;;;5020141;28;58452;-76
2024/02/27 10:40:39;;;;;;;1.60;1.50;;;;;;;;;;5018252;28;58827;-76
2024/02/27 10:43:05;;;;;;;1.80;1.67;;;;;;;;;;5025426;28;58541;-76
2024/02/27 10:45:32;;;;;;;1.42;1.33;;;;;;;;;;5021175;28;58484;-76
2024/02/27 10:47:59;;;;;;;1.58;1.48;;;;;;;;;;5007704;28;58409;-76
2024/02/27 10:50:26;;;;;;;1.95;1.50;;;;;;;;;;5019051;28;58477;-77
2024/02/27 10:52:53;;;;;;;1.35;1.25;;;;;;;;;;5018997;28;59215;-75
2024/02/27 10:55:19;;;;;;;1.65;1.40;;;;;;;;;;5025643;28;58477;-75
2024/02/27 10:57:45;;;;;;;1.63;1.52;;;;;;;;;;5022718;28;59093;-76
2024/02/27 11:00:11;;;;;;;1.40;1.30;;;;;;;;;;5021111;28;58422;-77
2024/02/27 11:02:41;;;;;;;1.67;1.50;;;;;;;;;;5027877;28;58444;-76
2024/02/27 11:05:06;;;;;;;1.38;1.27;;;;;;;;;;5028174;28;62989;-77
2024/02/27 11:07:31;;;;;;;1.67;1.13;;;;;;;;;;5026840;28;58920;-76
2024/02/27 11:09:58;;;;;;;1.30;1.20;;;;;;;;;;5028543;28;58279;-76
2024/02/27 11:12:24;;;;;;;1.27;1.17;;;;;;;;;;5026486;28;59976;-76
2024/02/27 11:14:51;;;;;;;1.60;1.30;;;;;;;;;;5029072;28;58382;-76
2024/02/27 11:17:21;;;;;;;1.63;1.42;;;;;;;;;;5026421;28;58404;-77
2024/02/27 11:19:48;;;;;;;2.42;1.67;;;;;;;;;;5026511;28;58933;-76
2024/02/27 11:22:14;;;;;;;1.60;1.50;;;;;;;;;;5020265;28;58345;-76
2024/02/27 11:24:40;;;;;;;2.60;1.77;;;;;;;;;;5018131;28;61045;-76
2024/02/27 11:27:05;;;;;;;2.37;1.40;;;;;;;;;;5019009;28;59253;-76
2024/02/27 11:29:31;;;;;;;1.77;1.67;;;;;;;;;;5029110;28;58481;-77
2024/02/27 11:31:56;;;;;;;1.23;1.13;;;;;;;;;;5016544;28;60717;-76
2024/02/27 11:34:23;;;;;;;1.08;0.90;;;;;;;;;;5022989;28;58441;-76
2024/02/27 11:37:06;;;;;;;1.90;1.60;;;;;;;;;;5017656;28;59149;-75
2024/02/27 11:39:31;;;;;;;1.38;1.27;;;;;;;;;;5014542;28;58525;-76
2024/02/27 11:41:56;;;;;;;1.73;1.63;;;;;;;;;;5018811;28;58372;-77
2024/02/27 11:44:22;;;;;;;1.92;1.75;;;;;;;;;;5019232;28;59169;-76
2024/02/27 11:46:51;;;;;;;1.33;1.20;;;;;;;;;;5022937;28;58863;-77
2024/02/27 11:49:36;;;;;;;1.08;0.98;;;;;;;;;;5027001;28;58385;-77
2024/02/27 11:52:01;;;;;;;1.92;1.35;;;;;;;;;;5021383;28;59703;-79
2024/02/27 11:54:33;;;;;;;1.30;1.20;;;;;;;;;;5020003;28;58473;-79
2024/02/27 11:56:59;;;;;;;1.75;1.38;;;;;;;;;;5026582;28;59894;-77
2024/02/27 11:59:28;;;;;;;1.03;0.97;;;;;;;;;;5017234;28;59923;-79
2024/02/27 12:02:06;;;;;;;1.27;1.17;;;;;;;;;;5025184;28;58466;-79
2024/02/27 12:04:31;;;;;;;;;;;;;;;;;;5016461;28;59407;-79
2024/02/27 12:06:56;;;;;;;1.77;1.63;;;;;;;;;;5013768;28;60160;-79
2024/02/27 12:09:23;;;;;;;1.73;1.13;;;;;;;;;;5012043;28;58446;-79
2024/02/27 12:11:49;;;;;;;1.60;1.50;;;;;;;;;;5013054;28;59309;-79
2024/02/27 12:14:14;;;;;;;3.60;2.13;;;;;;;;;;5027407;28;59102;-79
2024/02/27 12:16:41;;;;;;;3.22;2.47;;;;;;;;;;5025922;28;60930;-79
2024/02/27 12:19:06;;;;;;;2.40;2.20;;;;;;;;;;5027159;28;58785;-78
2024/02/27 12:21:32;;;;;;;1.97;1.63;;;;;;;;;;5026474;28;58437;-78
2024/02/27 12:24:07;;;;;;;1.83;1.60;;;;;;;;;;5023660;28;59326;-79
2024/02/27 12:26:32;;;;;;;1.83;1.63;;;;;;;;;;5007041;28;58558;-79
2024/02/27 12:28:57;;;;;;;2.20;2.00;;;;;;;;;;5005847;28;58509;-79
2024/02/27 12:31:23;;;;;;;1.40;1.30;;;;;;;;;;5006590;28;58780;-79
2024/02/27 12:33:49;;;;;;;1.37;1.27;;;;;;;;;;5010739;28;58589;-79
2024/02/27 12:36:14;;;;;;;1.90;1.80;;;;;;;;;;5015499;28;58531;-79
2024/02/27 12:38:49;;;;;;;2.57;1.63;;;;;;;;;;5025661;28;58920;-79
2024/02/27 12:41:14;;;;;;;2.05;1.67;;;;;;;;;;5026591;28;58381;-79
2024/02/27 12:43:39;;;;;;;1.60;1.50;;;;;;;;;;5025415;28;59304;-79
2024/02/27 12:46:05;;;;;;;1.83;1.20;;;;;;;;;;5024347;27;58389;-79
2024/02/27 12:48:30;;;;;;;1.83;1.60;;;;;;;;;;5022617;28;58519;-79
2024/02/27 12:50:55;;;;;;;1.37;1.13;;;;;;;;;;5015563;28;59248;-78
2024/02/27 12:53:20;;;;;;;1.50;1.23;;;;;;;;;;5024685;28;58738;-77
2024/02/27 12:55:46;;;;;;;4.23;1.53;;;;;;;;;;5007535;28;58450;-77
2024/02/27 12:58:21;;;;;;;2.25;1.40;;;;;;;;;;5020315;28;60610;-76
2024/02/27 13:00:46;;;;;;;1.75;1.45;;;;;;;;;;5028575;28;58371;-79
2024/02/27 13:03:12;;;;;;;1.17;1.08;;;;;;;;;;5025792;28;61490;-78
2024/02/27 13:05:37;;;;;;;2.37;2.17;;;;;;;;;;5024195;28;58769;-78
2024/02/27 13:08:04;;;;;;;1.63;1.38;;;;;;;;;;5026333;28;58442;-79
2024/02/27 13:10:30;;;;;;;1.30;1.20;;;;;;;;;;5028900;28;59252;-78
2024/02/27 13:13:13;;;;;;;1.50;1.40;;;;;;;;;;5027075;28;59781;-79
2024/02/27 13:15:40;;;;;;;1.92;1.50;;;;;;;;;;5025546;28;58462;-79
2024/02/27 13:18:06;;;;;;;1.95;1.73;;;;;;;;;;5025701;28;59486;-79
2024/02/27 13:20:31;;;;;;;1.60;1.37;;;;;;;;;;5026574;28;58693;-79
2024/02/27 13:22:56;;;;;;;1.63;1.33;;;;;;;;;;5027602;28;59414;-79
2024/02/27 13:25:21;;;;;;;2.10;1.47;;;;;;;;;;5021395;28;58736;-79
2024/02/27 13:27:46;;;;;;;2.30;1.80;;;;;;;;;;5014808;28;58376;-79
2024/02/27 13:30:12;;;;;;;3.00;1.87;;;;;;;;;;5005811;28;59565;-78
2024/02/27 13:32:38;;;;;;;1.50;1.33;;;;;;;;;;5014454;28;59106;-78
2024/02/27 13:35:03;;;;;;;4.10;1.65;;;;;;;;;;5016030;28;58494;-78
2024/02/27 13:37:28;;;;;;;1.58;1.42;;;;;;;;;;5022921;28;59224;-78
2024/02/27 13:39:53;;;;;;;1.60;1.50;;;;;;;;;;5019099;28;59067;-79
2024/02/27 13:42:19;;;;;;;1.98;1.40;;;;;;;;;;5009120;28;59101;-79
2024/02/27 13:44:45;;;;;;;1.95;1.42;;;;;;;;;;5004857;28;58495;-78
2024/02/27 13:47:10;;;;;;;3.22;1.60;;;;;;;;;;5016919;28;58525;-77
2024/02/27 13:49:35;;;;;;;3.63;1.63;;;;;;;;;;5014380;28;60907;-77
2024/02/27 13:52:01;;;;;;;3.40;1.37;;;;;;;;;;5021968;28;58784;-77
2024/02/27 13:54:26;;;;;;;2.42;1.50;;;;;;;;;;5021360;28;58505;-78
2024/02/27 13:56:51;;;;;;;4.77;1.90;;;;;;;;;;5013546;28;59933;-77
2024/02/27 13:59:16;;;;;;;2.13;1.47;;;;;;;;;;5018164;28;58424;-78
2024/02/27 14:01:41;;;;;;;3.88;1.60;;;;;;;;;;5007100;28;58737;-78
2024/02/27 14:04:07;;;;;;;11.07;1.50;;;;;;;;;;5034420;28;58873;-78
2024/02/27 14:06:32;;;;;;;3.53;2.13;;;;;;;;;;5029042;28;58472;-79
2024/02/27 14:08:57;;;;;;;3.33;2.33;;;;;;;;;;5022043;28;60107;-78
2024/02/27 14:11:22;;;;;;;3.13;1.58;;;;;;;;;;5028274;28;58710;-77
2024/02/27 14:13:47;;;;;;;2.77;1.70;;;;;;;;;;5029997;28;58485;-78
2024/02/27 14:16:12;;;;;;;2.80;1.20;;;;;;;;;;5029603;28;60293;-77
2024/02/27 14:18:38;;;;;;;1.97;1.60;;;;;;;;;;5026615;28;58767;-76
2024/02/27 14:21:03;;;;;;;2.83;1.30;;;;;;;;;;5030570;28;58449;-77
2024/02/27 14:23:28;;;;;;;3.80;2.17;;;;;;;;;;5011615;28;60491;-77
2024/02/27 14:25:54;;;;;;;3.30;1.87;;;;;;;;;;5013564;28;58521;-77
2024/02/27 14:28:19;;;;;;;1.60;1.50;;;;;;;;;;5018901;28;59233;-77
2024/02/27 14:30:44;;;;;;;2.03;1.10;;;;;;;;;;5016912;28;58613;-76
2024/02/27 14:33:09;;;;;;;3.57;1.83;;;;;;;;;;5013740;28;58404;-76
2024/02/27 14:35:35;;;;;;;2.85;1.30;;;;;;;;;;5012086;28;59236;-76
2024/02/27 14:38:00;;;;;;;2.00;1.77;;;;;;;;;;5016360;28;58630;-77